CheckWX is a tool to help pilots better visualize weather data.  It is not intended as a substitute for an official pre-flight weather briefing.

16:26:19 UTC

KBAZ METAR
New Braunfels Regional Airport
New Braunfels, Texas, USA
Current

35 mins ago

KBAZ 201551Z 05004KT 10SM CLR 09/04 A3004 RMK AO2 SLP173 T00890044
Observed
Feb-20 @ 15:51 UTC
Wind
  • 050° at 4 KTS
Visibility
16,093 meters
Flight Rules
VFR
Cloud Levels
  • Clear skies
Temperature
C / 48°F
Dewpoint
C / 39°F
Humidity
71%
Altimeter
30.04" Hg
Pressure
1017.3 hPa
Previous

2 hours ago

KBAZ 201451Z 01007KT 10SM CLR 07/04 A3003 RMK AO2 SLP171 T00670039 53019
Observed
Feb-20 @ 14:51 UTC
Wind
  • 010° at 7 KTS
Visibility
16,093 meters
Flight Rules
VFR
Cloud Levels
  • Clear skies
Temperature
C / 45°F
Dewpoint
C / 39°F
Humidity
81%
Altimeter
30.03" Hg
Pressure
1017.1 hPa
Previous

3 hours ago

KBAZ 201351Z 01004KT 10SM CLR 04/02 A3001 RMK AO2 SLP164 T00390022
Observed
Feb-20 @ 13:51 UTC
Wind
  • 010° at 4 KTS
Visibility
16,093 meters
Flight Rules
VFR
Cloud Levels
  • Clear skies
Temperature
C / 39°F
Dewpoint
C / 36°F
Humidity
87%
Altimeter
30.01" Hg
Pressure
1016.4 hPa